createdAt,value
2023-01-26T00:00:43.737Z,17.40
2023-01-26T00:03:15.919Z,17.93
2023-01-26T00:05:48.331Z,18.03
2023-01-26T00:08:19.993Z,18.31
2023-01-26T00:10:51.874Z,17.72
2023-01-26T00:13:23.516Z,17.95
2023-01-26T00:15:55.162Z,17.58
2023-01-26T00:18:26.919Z,18.34
2023-01-26T00:21:02.898Z,18.61
2023-01-26T00:23:36.097Z,18.63
2023-01-26T00:26:10.948Z,18.35
2023-01-26T00:28:44.291Z,18.03
2023-01-26T00:31:19.802Z,18.62
2023-01-26T00:33:54.053Z,18.88
2023-01-26T00:36:25.788Z,19.05
2023-01-26T00:38:57.430Z,18.33
2023-01-26T00:41:29.084Z,18.11
2023-01-26T00:44:01.339Z,18.42
2023-01-26T00:46:33.077Z,18.53
2023-01-26T00:49:05.339Z,19.55
2023-01-26T00:51:38.252Z,19.81
2023-01-26T00:54:09.905Z,19.21
2023-01-26T00:56:41.468Z,19.14
2023-01-26T00:59:13.115Z,19.14
2023-01-26T01:01:44.832Z,18.99
2023-01-26T01:04:18.414Z,19.78
2023-01-26T01:06:50.024Z,19.27
2023-01-26T01:09:22.166Z,19.69
2023-01-26T01:11:54.515Z,19.44
2023-01-26T01:14:26.097Z,19.06
2023-01-26T01:16:57.699Z,19.20
2023-01-26T01:19:29.330Z,19.19
2023-01-26T01:22:00.972Z,18.38
2023-01-26T01:24:32.897Z,18.74
2023-01-26T01:27:04.456Z,19.09
2023-01-26T01:29:36.191Z,19.08
2023-01-26T01:32:07.860Z,18.00
2023-01-26T01:34:39.453Z,18.03
2023-01-26T01:37:10.984Z,17.95
2023-01-26T01:39:42.837Z,18.51
2023-01-26T01:42:14.510Z,17.93
2023-01-26T01:45:35.169Z,17.97
2023-01-26T01:48:16.587Z,18.72
2023-01-26T01:50:52.170Z,18.33
2023-01-26T01:53:32.346Z,18.39
2023-01-26T01:56:11.895Z,18.16
2023-01-26T01:58:45.279Z,17.95
2023-01-26T02:01:17.163Z,18.21
2023-01-26T02:03:54.077Z,18.24
2023-01-26T02:06:39.655Z,18.44
2023-01-26T02:09:13.022Z,18.05
2023-01-26T02:11:45.651Z,17.86
2023-01-26T02:14:17.632Z,18.41
2023-01-26T02:16:49.284Z,17.66
2023-01-26T02:19:47.060Z,17.95
2023-01-26T02:22:55.932Z,17.96
2023-01-26T02:25:39.813Z,17.42
2023-01-26T02:28:11.969Z,17.71
2023-01-26T02:30:43.734Z,17.99
2023-01-26T02:33:19.813Z,17.29
2023-01-26T02:35:51.935Z,17.49
2023-01-26T02:38:30.752Z,16.43
2023-01-26T02:41:07.814Z,15.69
2023-01-26T02:43:40.628Z,15.11
2023-01-26T02:46:12.447Z,14.50
2023-01-26T02:48:45.361Z,14.38
2023-01-26T02:51:16.936Z,14.58
2023-01-26T02:53:48.899Z,14.14
2023-01-26T02:56:20.544Z,13.79
2023-01-26T02:58:52.340Z,13.44
2023-01-26T03:01:24.104Z,14.58
2023-01-26T03:03:56.171Z,14.29
2023-01-26T03:06:28.896Z,15.16
2023-01-26T03:09:02.184Z,14.72
2023-01-26T03:11:33.845Z,15.10
2023-01-26T03:14:05.544Z,14.72
2023-01-26T03:16:38.299Z,14.74
2023-01-26T03:19:13.269Z,14.53
2023-01-26T03:21:45.368Z,14.80
2023-01-26T03:24:18.255Z,14.39
2023-01-26T03:26:50.090Z,14.45
2023-01-26T03:29:23.610Z,14.05
2023-01-26T03:31:57.356Z,14.30
2023-01-26T03:34:29.442Z,13.88
2023-01-26T03:37:02.045Z,13.98
2023-01-26T03:39:42.014Z,14.38
2023-01-26T03:42:15.803Z,14.74
2023-01-26T03:44:47.727Z,14.30
2023-01-26T03:47:19.341Z,14.55
2023-01-26T03:49:51.169Z,14.29
2023-01-26T03:52:22.815Z,14.93
2023-01-26T03:54:55.530Z,14.88
2023-01-26T03:57:29.824Z,15.00
2023-01-26T04:00:04.527Z,14.46
2023-01-26T04:02:44.264Z,14.73
2023-01-26T04:05:16.766Z,14.51
2023-01-26T04:07:52.304Z,14.61
2023-01-26T04:10:25.428Z,14.30
2023-01-26T04:12:57.338Z,14.67
2023-01-26T04:15:29.134Z,14.61
2023-01-26T04:18:06.601Z,14.44
2023-01-26T04:20:38.333Z,14.03
2023-01-26T04:23:18.437Z,14.03
2023-01-26T04:25:50.906Z,14.24
2023-01-26T04:28:23.303Z,14.38
2023-01-26T04:30:56.140Z,14.85
2023-01-26T04:33:27.943Z,15.01
2023-01-26T04:36:08.413Z,15.37
2023-01-26T04:38:43.656Z,14.99
2023-01-26T04:41:17.533Z,15.44
2023-01-26T04:43:52.467Z,15.20
2023-01-26T04:46:24.784Z,16.24
2023-01-26T04:48:56.589Z,15.68
2023-01-26T04:51:28.847Z,16.59
2023-01-26T04:54:01.014Z,15.78
2023-01-26T04:56:35.761Z,16.40
2023-01-26T04:59:09.548Z,16.35
2023-01-26T05:01:44.384Z,15.89
2023-01-26T05:04:16.015Z,16.77
2023-01-26T05:06:50.777Z,16.42
2023-01-26T05:09:22.438Z,16.67
2023-01-26T05:12:10.020Z,16.81
2023-01-26T05:15:05.415Z,17.07
2023-01-26T05:18:00.461Z,16.84
2023-01-26T05:20:44.400Z,17.32
2023-01-26T05:23:26.589Z,17.52
2023-01-26T05:26:17.275Z,17.46
2023-01-26T05:29:00.689Z,17.44
2023-01-26T05:31:32.462Z,17.17
2023-01-26T05:34:04.208Z,18.28
2023-01-26T05:36:38.652Z,18.07
2023-01-26T05:39:10.577Z,17.05
2023-01-26T05:41:42.244Z,17.47
2023-01-26T05:44:39.884Z,17.80
2023-01-26T05:47:17.171Z,18.09
2023-01-26T05:49:52.459Z,18.26
2023-01-26T05:52:30.335Z,18.47
2023-01-26T05:55:02.575Z,18.23
2023-01-26T05:57:34.419Z,18.07
2023-01-26T06:00:12.414Z,17.88
2023-01-26T06:02:52.877Z,18.20
2023-01-26T06:05:25.050Z,18.55
2023-01-26T06:07:57.371Z,17.95
2023-01-26T06:10:42.412Z,18.10
2023-01-26T06:13:30.098Z,17.80
2023-01-26T06:16:20.719Z,17.74
2023-01-26T06:18:54.007Z,17.81
2023-01-26T06:21:26.270Z,17.57
2023-01-26T06:23:59.086Z,17.78
2023-01-26T06:26:31.004Z,18.40
2023-01-26T06:29:03.722Z,18.27
2023-01-26T06:31:38.563Z,18.20
2023-01-26T06:34:11.826Z,17.70
2023-01-26T06:36:46.565Z,18.14
2023-01-26T06:39:25.156Z,18.33
2023-01-26T06:41:58.255Z,17.72
2023-01-26T06:44:30.069Z,18.23
2023-01-26T06:47:01.829Z,18.86
2023-01-26T06:49:34.964Z,18.27
2023-01-26T06:52:31.238Z,18.04
2023-01-26T06:55:27.065Z,17.72
2023-01-26T06:58:17.624Z,18.18
2023-01-26T07:01:25.336Z,18.23
2023-01-26T07:03:57.039Z,19.26
2023-01-26T07:06:29.136Z,18.74
2023-01-26T07:09:00.977Z,18.70
2023-01-26T07:11:32.892Z,18.88
2023-01-26T07:14:04.669Z,18.82
2023-01-26T07:16:36.311Z,18.46
2023-01-26T07:19:07.934Z,18.35
2023-01-26T07:21:39.535Z,18.92
2023-01-26T07:24:11.459Z,18.26
2023-01-26T07:26:43.123Z,18.22
2023-01-26T07:29:14.696Z,18.88
2023-01-26T07:31:46.327Z,18.69
2023-01-26T07:34:18.118Z,18.98
2023-01-26T07:36:52.104Z,19.35
2023-01-26T07:39:24.091Z,18.23
2023-01-26T07:41:56.341Z,18.71
2023-01-26T07:44:51.211Z,18.18
2023-01-26T07:47:23.125Z,19.06
2023-01-26T07:49:54.769Z,18.37
2023-01-26T07:52:26.518Z,18.74
2023-01-26T07:54:58.197Z,18.60
2023-01-26T07:57:30.061Z,17.95
2023-01-26T08:00:02.189Z,18.66
2023-01-26T08:02:43.859Z,18.31
2023-01-26T08:05:15.752Z,17.83
2023-01-26T08:07:48.275Z,18.31
2023-01-26T08:10:20.145Z,18.35
2023-01-26T08:12:51.738Z,18.48
2023-01-26T08:15:23.278Z,18.77
2023-01-26T08:17:55.173Z,18.51
2023-01-26T08:20:26.791Z,19.01
2023-01-26T08:23:00.476Z,18.84
2023-01-26T08:25:32.330Z,17.94
2023-01-26T08:28:03.916Z,18.31
2023-01-26T08:30:35.575Z,18.59
2023-01-26T08:33:08.085Z,19.14
2023-01-26T08:35:39.741Z,18.83
2023-01-26T08:38:11.324Z,18.88
2023-01-26T08:40:42.926Z,19.80
2023-01-26T08:43:14.567Z,19.37
2023-01-26T08:45:47.684Z,19.44
2023-01-26T08:48:19.491Z,18.57
2023-01-26T08:50:56.423Z,19.80
2023-01-26T08:53:34.380Z,20.37
2023-01-26T08:56:09.202Z,19.31
2023-01-26T08:58:41.688Z,19.54
2023-01-26T09:01:16.843Z,20.45
2023-01-26T09:03:48.432Z,19.84
2023-01-26T09:06:20.199Z,20.23
2023-01-26T09:08:52.291Z,20.38
2023-01-26T09:11:25.234Z,20.75
2023-01-26T09:13:56.992Z,20.34
2023-01-26T09:16:28.652Z,20.30
2023-01-26T09:19:00.286Z,20.58
2023-01-26T09:21:32.056Z,21.16
2023-01-26T09:24:04.030Z,21.31
2023-01-26T09:26:35.763Z,20.85
2023-01-26T09:29:07.517Z,21.11
2023-01-26T09:31:39.180Z,21.22
2023-01-26T09:34:10.829Z,20.98
2023-01-26T09:36:42.439Z,21.18
2023-01-26T09:39:13.980Z,21.29
2023-01-26T09:41:45.530Z,21.47
2023-01-26T09:44:25.247Z,21.06
2023-01-26T09:47:05.529Z,20.92
2023-01-26T09:49:47.237Z,20.60
2023-01-26T09:52:27.993Z,20.77
2023-01-26T09:55:04.951Z,21.18
2023-01-26T09:57:40.647Z,20.68
2023-01-26T10:00:45.727Z,20.04
2023-01-26T10:03:33.760Z,20.68
2023-01-26T10:06:21.328Z,20.53
2023-01-26T10:09:25.130Z,20.82
2023-01-26T10:12:02.315Z,20.47
2023-01-26T10:14:43.725Z,21.31
2023-01-26T10:17:25.221Z,20.36
2023-01-26T10:20:18.345Z,20.22
2023-01-26T10:22:59.517Z,20.16
2023-01-26T10:25:36.952Z,19.88
2023-01-26T10:28:30.722Z,19.79
2023-01-26T10:31:06.656Z,19.80
2023-01-26T10:33:51.613Z,19.91
2023-01-26T10:36:24.331Z,19.95
2023-01-26T10:39:07.251Z,20.42
2023-01-26T10:41:43.184Z,19.94
2023-01-26T10:44:27.967Z,19.93
2023-01-26T10:47:13.935Z,20.01
2023-01-26T10:49:45.668Z,19.76
2023-01-26T10:52:22.767Z,19.47
2023-01-26T10:55:20.594Z,19.23
2023-01-26T10:57:52.383Z,18.75
2023-01-26T11:00:33.501Z,19.42
2023-01-26T11:03:14.206Z,18.20
2023-01-26T11:05:46.029Z,18.07
2023-01-26T11:08:37.340Z,18.58
2023-01-26T11:11:29.373Z,17.97
2023-01-26T11:14:20.166Z,17.64
2023-01-26T11:17:05.829Z,18.25
2023-01-26T11:19:45.963Z,18.54
2023-01-26T11:22:52.051Z,18.52
2023-01-26T11:25:30.952Z,17.65
2023-01-26T11:28:08.402Z,17.42
2023-01-26T11:31:04.858Z,16.65
2023-01-26T11:33:58.270Z,17.16
2023-01-26T11:37:04.031Z,16.57
2023-01-26T11:40:01.982Z,16.03
2023-01-26T11:42:45.070Z,16.21
2023-01-26T11:45:28.532Z,15.84
2023-01-26T11:48:27.512Z,16.00
2023-01-26T11:51:30.985Z,16.15
2023-01-26T11:54:10.462Z,15.50
2023-01-26T11:57:19.173Z,15.80
2023-01-26T12:00:02.026Z,15.82
2023-01-26T12:02:37.622Z,15.89
2023-01-26T12:05:24.023Z,16.31
2023-01-26T12:08:05.011Z,16.97
2023-01-26T12:10:47.786Z,16.54
2023-01-26T12:13:35.793Z,16.81
2023-01-26T12:16:33.029Z,16.86
2023-01-26T12:19:23.476Z,16.45
2023-01-26T12:22:04.388Z,16.12
2023-01-26T12:25:16.209Z,17.13
2023-01-26T12:27:47.802Z,17.24
2023-01-26T12:30:43.975Z,16.77
2023-01-26T12:33:16.184Z,16.59
2023-01-26T12:35:53.857Z,16.95
2023-01-26T12:38:25.407Z,17.13
2023-01-26T12:41:10.946Z,16.75
2023-01-26T12:44:01.147Z,16.30
2023-01-26T12:46:41.217Z,16.63
2023-01-26T12:49:40.525Z,17.26
2023-01-26T12:52:31.612Z,16.69
2023-01-26T12:55:35.724Z,16.35
2023-01-26T12:58:22.440Z,16.84
2023-01-26T13:01:04.868Z,17.05
2023-01-26T13:03:42.970Z,17.12
2023-01-26T13:06:14.516Z,16.36
2023-01-26T13:08:57.986Z,15.71
2023-01-26T13:11:49.361Z,16.13
2023-01-26T13:14:29.647Z,15.41
2023-01-26T13:17:21.572Z,15.87
2023-01-26T13:19:56.206Z,15.91
2023-01-26T13:22:27.786Z,15.68
2023-01-26T13:25:16.144Z,15.64
2023-01-26T13:28:02.626Z,15.79
2023-01-26T13:30:43.817Z,15.84
2023-01-26T13:33:25.260Z,15.95
2023-01-26T13:36:02.203Z,16.17
2023-01-26T13:38:53.303Z,15.62
2023-01-26T13:41:25.087Z,15.99
2023-01-26T13:44:27.025Z,16.07
2023-01-26T13:47:09.921Z,15.99
2023-01-26T13:49:43.203Z,15.39
2023-01-26T13:52:24.788Z,15.40
2023-01-26T13:54:57.196Z,15.71
2023-01-26T13:57:30.502Z,15.88
2023-01-26T14:00:02.289Z,15.82
2023-01-26T14:02:38.995Z,15.73
2023-01-26T14:05:21.734Z,15.55
2023-01-26T14:07:53.376Z,15.45
2023-01-26T14:10:25.043Z,15.47
2023-01-26T14:12:59.784Z,15.74
2023-01-26T14:15:32.905Z,15.49
2023-01-26T14:18:05.069Z,15.59
2023-01-26T14:20:39.638Z,15.53
2023-01-26T14:23:16.587Z,15.46
2023-01-26T14:26:01.991Z,15.64
2023-01-26T14:28:36.813Z,14.78
2023-01-26T14:31:14.573Z,15.59
2023-01-26T14:33:48.641Z,15.19
2023-01-26T14:36:21.537Z,15.63
2023-01-26T14:38:55.813Z,14.64
2023-01-26T14:41:34.501Z,14.89
2023-01-26T14:44:06.203Z,15.04
2023-01-26T14:46:51.345Z,14.46
2023-01-26T14:49:38.773Z,14.00
2023-01-26T14:52:25.062Z,13.96
2023-01-26T14:55:02.977Z,13.99
2023-01-26T14:57:34.843Z,13.78
2023-01-26T15:00:07.315Z,14.21
2023-01-26T15:02:47.264Z,13.82
2023-01-26T15:05:22.291Z,13.98
2023-01-26T15:07:59.993Z,14.21
2023-01-26T15:10:41.318Z,13.59
2023-01-26T15:13:16.837Z,14.40
2023-01-26T15:16:15.884Z,14.15
2023-01-26T15:19:02.335Z,13.50
2023-01-26T15:21:36.815Z,14.24
2023-01-26T15:24:15.069Z,13.72
2023-01-26T15:26:47.192Z,13.88
2023-01-26T15:29:32.338Z,13.63
2023-01-26T15:32:04.219Z,13.77
2023-01-26T15:34:38.568Z,13.28
2023-01-26T15:37:30.070Z,14.14
2023-01-26T15:40:02.021Z,14.11
2023-01-26T15:42:33.791Z,13.96
2023-01-26T15:45:35.142Z,13.86
2023-01-26T15:48:06.856Z,13.74
2023-01-26T15:50:38.604Z,13.76
2023-01-26T15:53:18.112Z,14.21
2023-01-26T15:55:50.939Z,14.27
2023-01-26T15:58:23.782Z,13.99
2023-01-26T16:00:56.342Z,14.19
2023-01-26T16:03:28.893Z,14.62
2023-01-26T16:06:00.743Z,14.61
2023-01-26T16:08:32.411Z,14.79
2023-01-26T16:11:09.692Z,14.51
2023-01-26T16:13:42.942Z,14.63
2023-01-26T16:16:16.821Z,14.81
2023-01-26T16:18:48.438Z,14.36
2023-01-26T16:21:24.838Z,14.15
2023-01-26T16:23:56.446Z,14.16
2023-01-26T16:26:29.781Z,14.26
2023-01-26T16:29:01.448Z,14.32
2023-01-26T16:31:34.043Z,14.51
2023-01-26T16:34:05.648Z,14.05
2023-01-26T16:36:37.288Z,14.37
2023-01-26T16:39:08.859Z,14.17
2023-01-26T16:41:40.458Z,14.99
2023-01-26T16:44:14.384Z,14.23
2023-01-26T16:46:46.124Z,14.49
2023-01-26T16:49:17.725Z,14.32
2023-01-26T16:51:49.535Z,14.13
2023-01-26T16:54:21.154Z,14.30
2023-01-26T16:56:52.802Z,14.50
2023-01-26T16:59:24.388Z,14.54
2023-01-26T17:01:56.576Z,14.48
2023-01-26T17:04:28.355Z,15.19
2023-01-26T17:06:59.930Z,14.50
2023-01-26T17:09:31.499Z,15.02
2023-01-26T17:12:03.232Z,15.11
2023-01-26T17:14:34.862Z,15.56
2023-01-26T17:17:06.597Z,14.84
2023-01-26T17:19:38.227Z,15.92
2023-01-26T17:22:09.801Z,15.49
2023-01-26T17:24:41.435Z,15.69
2023-01-26T17:27:13.077Z,15.92
2023-01-26T17:29:44.733Z,15.51
2023-01-26T17:32:17.726Z,15.01
2023-01-26T17:34:50.175Z,16.12
2023-01-26T17:37:23.319Z,17.25
2023-01-26T17:39:55.839Z,17.07
2023-01-26T17:42:27.420Z,17.32
2023-01-26T17:44:59.003Z,16.88
2023-01-26T17:47:33.439Z,16.81
2023-01-26T17:50:05.534Z,16.68
2023-01-26T17:52:37.248Z,16.74
2023-01-26T17:55:08.930Z,16.45
2023-01-26T17:57:40.554Z,16.05
2023-01-26T18:00:12.784Z,16.31
2023-01-26T18:02:44.375Z,16.53
2023-01-26T18:05:16.124Z,16.60
2023-01-26T18:07:47.752Z,16.80
2023-01-26T18:10:19.449Z,16.66
2023-01-26T18:12:51.045Z,16.33
2023-01-26T18:15:23.402Z,17.04
2023-01-26T18:17:55.004Z,16.56
2023-01-26T18:20:26.568Z,16.91
2023-01-26T18:22:58.794Z,16.62
2023-01-26T18:25:30.524Z,17.05
2023-01-26T18:28:03.003Z,17.32
2023-01-26T18:30:34.660Z,17.73
2023-01-26T18:33:06.833Z,17.68
2023-01-26T18:35:38.461Z,17.69
2023-01-26T18:38:10.028Z,17.44
2023-01-26T18:40:41.693Z,18.00
2023-01-26T18:43:13.352Z,18.00
2023-01-26T18:45:44.996Z,17.10
2023-01-26T18:48:16.614Z,17.03
2023-01-26T18:50:49.019Z,16.56
2023-01-26T18:53:20.622Z,17.34
2023-01-26T18:56:04.697Z,17.34
2023-01-26T18:58:38.509Z,17.69
2023-01-26T19:01:13.812Z,17.58
2023-01-26T19:03:45.456Z,17.32
2023-01-26T19:06:17.305Z,17.28
2023-01-26T19:08:58.237Z,17.08
2023-01-26T19:11:33.084Z,17.34
2023-01-26T19:14:06.873Z,16.90
2023-01-26T19:16:38.961Z,17.31
2023-01-26T19:19:12.112Z,18.27
2023-01-26T19:21:43.667Z,18.08
2023-01-26T19:24:15.367Z,18.04
2023-01-26T19:26:47.135Z,18.00
2023-01-26T19:29:18.854Z,18.08
2023-01-26T19:31:50.715Z,19.04
2023-01-26T19:34:22.460Z,18.95
2023-01-26T19:36:54.293Z,18.09
2023-01-26T19:39:26.361Z,18.69
2023-01-26T19:41:58.073Z,18.57
2023-01-26T19:44:29.839Z,18.21
2023-01-26T19:47:01.615Z,18.26
2023-01-26T19:49:33.296Z,18.32
2023-01-26T19:52:04.986Z,18.16
2023-01-26T19:54:37.601Z,18.47
2023-01-26T19:57:09.368Z,18.69
2023-01-26T19:59:41.453Z,18.65
2023-01-26T20:02:13.281Z,18.77
2023-01-26T20:04:45.416Z,18.28
2023-01-26T20:07:17.058Z,18.22
2023-01-26T20:09:51.841Z,18.64
2023-01-26T20:12:23.702Z,18.05
2023-01-26T20:14:55.366Z,17.96
2023-01-26T20:17:27.014Z,17.95
2023-01-26T20:19:58.709Z,17.98
2023-01-26T20:22:30.369Z,17.45
2023-01-26T20:25:01.981Z,17.45
2023-01-26T20:27:33.608Z,17.59
2023-01-26T20:30:06.047Z,16.92
2023-01-26T20:32:37.991Z,17.10
2023-01-26T20:35:13.449Z,17.19
2023-01-26T20:37:45.088Z,17.45
2023-01-26T20:40:16.711Z,16.67
2023-01-26T20:42:48.373Z,17.42
2023-01-26T20:45:19.939Z,17.53
2023-01-26T20:47:51.602Z,17.07
2023-01-26T20:50:23.187Z,17.24
2023-01-26T20:52:54.801Z,17.20
2023-01-26T20:55:26.447Z,16.83
2023-01-26T20:57:58.076Z,17.41
2023-01-26T21:00:29.812Z,17.10
2023-01-26T21:03:01.539Z,17.28
2023-01-26T21:05:33.155Z,17.26
2023-01-26T21:08:05.129Z,17.35
2023-01-26T21:10:36.746Z,17.51
2023-01-26T21:13:08.322Z,17.77
2023-01-26T21:15:40.236Z,17.48
2023-01-26T21:18:12.251Z,17.34
2023-01-26T21:20:43.995Z,17.66
2023-01-26T21:23:15.671Z,17.21
2023-01-26T21:25:47.292Z,16.86
2023-01-26T21:28:19.731Z,17.25
2023-01-26T21:31:15.141Z,17.09
2023-01-26T21:33:48.872Z,17.39
2023-01-26T21:36:24.117Z,17.47
2023-01-26T21:38:57.994Z,16.87
2023-01-26T21:41:33.865Z,17.26
2023-01-26T21:44:08.782Z,16.60
2023-01-26T21:46:40.811Z,16.16
2023-01-26T21:49:13.443Z,15.67
2023-01-26T21:51:45.141Z,15.94
2023-01-26T21:54:17.275Z,15.42
2023-01-26T21:56:49.025Z,14.63
2023-01-26T21:59:20.825Z,13.51
2023-01-26T22:01:55.615Z,13.66
2023-01-26T22:04:30.273Z,13.98
2023-01-26T22:07:01.962Z,13.58
2023-01-26T22:09:33.540Z,13.34
2023-01-26T22:12:05.414Z,13.85
2023-01-26T22:14:37.057Z,13.55
2023-01-26T22:17:08.712Z,13.80
2023-01-26T22:19:40.628Z,13.92
2023-01-26T22:22:12.210Z,13.23
2023-01-26T22:24:43.954Z,13.25
2023-01-26T22:27:15.521Z,12.80
2023-01-26T22:29:47.079Z,12.76
2023-01-26T22:32:18.713Z,12.42
2023-01-26T22:34:54.711Z,13.12
2023-01-26T22:37:26.311Z,12.53
2023-01-26T22:39:57.958Z,13.01
2023-01-26T22:42:29.495Z,11.78
2023-01-26T22:45:01.117Z,12.11
2023-01-26T22:47:32.783Z,12.50
2023-01-26T22:50:05.277Z,12.29
2023-01-26T22:52:36.833Z,12.82
2023-01-26T22:55:09.250Z,12.69
2023-01-26T22:57:40.784Z,12.93
2023-01-26T23:00:13.178Z,12.42
2023-01-26T23:02:45.005Z,11.99
2023-01-26T23:05:16.706Z,11.32
2023-01-26T23:07:48.241Z,11.33
2023-01-26T23:10:19.832Z,12.18
2023-01-26T23:12:51.839Z,10.80
2023-01-26T23:15:23.546Z,11.21
2023-01-26T23:17:55.387Z,11.07
2023-01-26T23:20:27.108Z,11.63
2023-01-26T23:23:01.639Z,11.74
2023-01-26T23:25:33.344Z,11.94
2023-01-26T23:28:05.172Z,11.59
2023-01-26T23:30:36.882Z,11.71
2023-01-26T23:33:08.522Z,11.43
2023-01-26T23:35:40.303Z,11.12
2023-01-26T23:38:12.969Z,10.95
2023-01-26T23:40:44.866Z,10.91
2023-01-26T23:43:17.640Z,10.56
2023-01-26T23:45:50.749Z,10.99
2023-01-26T23:48:23.673Z,11.00
2023-01-26T23:51:00.388Z,10.51
2023-01-26T23:53:32.856Z,10.47
2023-01-26T23:56:12.423Z,10.10
2023-01-26T23:58:44.719Z,9.90
